sensor_id;sensor_type;location;lat;lon;timestamp;pressure;altitude;pressure_sealevel;temperature;humidity
19286;BME280;9776;50.798;6.430;2023-04-26T00:01:54;100511.38;;;7.68;53.48
19286;BME280;9776;50.798;6.430;2023-04-26T00:04:21;100512.22;;;7.68;53.48
19286;BME280;9776;50.798;6.430;2023-04-26T00:06:48;100508.66;;;7.69;53.40
19286;BME280;9776;50.798;6.430;2023-04-26T00:09:15;100506.97;;;7.68;53.46
19286;BME280;9776;50.798;6.430;2023-04-26T00:11:44;100503.66;;;7.66;53.37
19286;BME280;9776;50.798;6.430;2023-04-26T00:14:11;100507.22;;;7.65;53.44
19286;BME280;9776;50.798;6.430;2023-04-26T00:16:37;100507.63;;;7.61;53.45
19286;BME280;9776;50.798;6.430;2023-04-26T00:19:04;100502.34;;;7.61;53.55
19286;BME280;9776;50.798;6.430;2023-04-26T00:21:30;100498.31;;;7.57;53.50
19286;BME280;9776;50.798;6.430;2023-04-26T00:23:57;100495.81;;;7.55;53.49
19286;BME280;9776;50.798;6.430;2023-04-26T00:26:24;100492.59;;;7.52;53.61
19286;BME280;9776;50.798;6.430;2023-04-26T00:28:52;100490.22;;;7.49;53.55
19286;BME280;9776;50.798;6.430;2023-04-26T00:31:19;100492.16;;;7.47;53.60
19286;BME280;9776;50.798;6.430;2023-04-26T00:33:45;100488.94;;;7.43;53.76
19286;BME280;9776;50.798;6.430;2023-04-26T00:36:12;100488.25;;;7.41;53.81
19286;BME280;9776;50.798;6.430;2023-04-26T00:38:39;100492.06;;;7.37;53.75
19286;BME280;9776;50.798;6.430;2023-04-26T00:41:05;100487.91;;;7.34;53.92
19286;BME280;9776;50.798;6.430;2023-04-26T00:43:32;100496.72;;;7.33;53.85
19286;BME280;9776;50.798;6.430;2023-04-26T00:46:00;100491.63;;;7.32;53.99
19286;BME280;9776;50.798;6.430;2023-04-26T00:48:27;100498.91;;;7.28;54.04
19286;BME280;9776;50.798;6.430;2023-04-26T00:50:54;100497.22;;;7.27;54.07
19286;BME280;9776;50.798;6.430;2023-04-26T00:53:21;100491.25;;;7.25;54.13
19286;BME280;9776;50.798;6.430;2023-04-26T00:55:48;100493.88;;;7.25;54.08
19286;BME280;9776;50.798;6.430;2023-04-26T00:58:16;100501.91;;;7.24;54.09
19286;BME280;9776;50.798;6.430;2023-04-26T01:00:43;100496.75;;;7.22;54.07
19286;BME280;9776;50.798;6.430;2023-04-26T01:03:12;100502.16;;;7.21;54.11
19286;BME280;9776;50.798;6.430;2023-04-26T01:05:39;100504.03;;;7.19;54.13
19286;BME280;9776;50.798;6.430;2023-04-26T01:08:06;100498.78;;;7.19;54.02
19286;BME280;9776;50.798;6.430;2023-04-26T01:10:33;100497.41;;;7.15;54.19
19286;BME280;9776;50.798;6.430;2023-04-26T01:13:00;100498.34;;;7.14;54.12
19286;BME280;9776;50.798;6.430;2023-04-26T01:15:28;100499.31;;;7.13;54.16
19286;BME280;9776;50.798;6.430;2023-04-26T01:17:54;100498.81;;;7.08;54.21
19286;BME280;9776;50.798;6.430;2023-04-26T01:20:23;100499.22;;;7.03;54.30
19286;BME280;9776;50.798;6.430;2023-04-26T01:22:51;100498.38;;;7.03;54.29
19286;BME280;9776;50.798;6.430;2023-04-26T01:25:18;100502.19;;;6.99;54.31
19286;BME280;9776;50.798;6.430;2023-04-26T01:27:45;100495.41;;;6.96;54.38
19286;BME280;9776;50.798;6.430;2023-04-26T01:30:11;100493.84;;;6.94;54.49
19286;BME280;9776;50.798;6.430;2023-04-26T01:32:38;100487.31;;;6.88;54.57
19286;BME280;9776;50.798;6.430;2023-04-26T01:35:05;100494.00;;;6.81;54.82
19286;BME280;9776;50.798;6.430;2023-04-26T01:37:32;100493.66;;;6.74;54.87
19286;BME280;9776;50.798;6.430;2023-04-26T01:40:00;100494.38;;;6.65;55.08
19286;BME280;9776;50.798;6.430;2023-04-26T01:42:27;100498.53;;;6.68;54.95
19286;BME280;9776;50.798;6.430;2023-04-26T01:44:53;100490.81;;;6.66;54.95
19286;BME280;9776;50.798;6.430;2023-04-26T01:47:20;100494.38;;;6.65;54.88
19286;BME280;9776;50.798;6.430;2023-04-26T01:49:46;100495.78;;;6.58;55.05
19286;BME280;9776;50.798;6.430;2023-04-26T01:52:13;100490.06;;;6.53;55.22
19286;BME280;9776;50.798;6.430;2023-04-26T01:54:41;100494.63;;;6.51;55.31
19286;BME280;9776;50.798;6.430;2023-04-26T01:57:08;100496.41;;;6.51;55.35
19286;BME280;9776;50.798;6.430;2023-04-26T01:59:35;100494.72;;;6.50;55.40
19286;BME280;9776;50.798;6.430;2023-04-26T02:02:02;100500.81;;;6.50;55.19
19286;BME280;9776;50.798;6.430;2023-04-26T02:04:28;100497.59;;;6.36;55.54
19286;BME280;9776;50.798;6.430;2023-04-26T02:06:55;100500.09;;;6.26;55.86
19286;BME280;9776;50.798;6.430;2023-04-26T02:09:22;100500.09;;;6.26;55.92
19286;BME280;9776;50.798;6.430;2023-04-26T02:11:49;100499.88;;;6.29;55.63
19286;BME280;9776;50.798;6.430;2023-04-26T02:14:16;100499.72;;;6.31;55.57
19286;BME280;9776;50.798;6.430;2023-04-26T02:16:44;100495.78;;;6.25;55.77
19286;BME280;9776;50.798;6.430;2023-04-26T02:19:11;100495.91;;;6.23;55.69
19286;BME280;9776;50.798;6.430;2023-04-26T02:21:50;100489.94;;;6.21;55.74
19286;BME280;9776;50.798;6.430;2023-04-26T02:24:17;100497.56;;;6.13;55.83
19286;BME280;9776;50.798;6.430;2023-04-26T02:26:44;100493.03;;;6.15;55.91
19286;BME280;9776;50.798;6.430;2023-04-26T02:29:10;100491.03;;;6.19;55.69
19286;BME280;9776;50.798;6.430;2023-04-26T02:31:38;100484.84;;;6.20;55.57
19286;BME280;9776;50.798;6.430;2023-04-26T02:34:05;100498.75;;;6.20;55.60
19286;BME280;9776;50.798;6.430;2023-04-26T02:36:32;100487.69;;;6.17;55.75
19286;BME280;9776;50.798;6.430;2023-04-26T02:38:58;100489.72;;;6.13;55.80
19286;BME280;9776;50.798;6.430;2023-04-26T02:41:25;100498.50;;;6.12;55.79
19286;BME280;9776;50.798;6.430;2023-04-26T02:43:52;100497.56;;;6.13;55.80
19286;BME280;9776;50.798;6.430;2023-04-26T02:46:18;100501.13;;;6.12;55.73
19286;BME280;9776;50.798;6.430;2023-04-26T02:48:46;100496.25;;;6.08;55.85
19286;BME280;9776;50.798;6.430;2023-04-26T02:51:13;100492.69;;;6.09;55.80
19286;BME280;9776;50.798;6.430;2023-04-26T02:53:40;100493.63;;;6.08;55.73
19286;BME280;9776;50.798;6.430;2023-04-26T02:56:07;100493.88;;;6.05;55.83
19286;BME280;9776;50.798;6.430;2023-04-26T02:58:33;100486.09;;;6.03;55.88
19286;BME280;9776;50.798;6.430;2023-04-26T03:01:00;100476.13;;;5.97;55.77
19286;BME280;9776;50.798;6.430;2023-04-26T03:03:28;100476.94;;;5.98;55.85
19286;BME280;9776;50.798;6.430;2023-04-26T03:05:56;100474.44;;;5.96;55.97
19286;BME280;9776;50.798;6.430;2023-04-26T03:08:23;100471.81;;;5.96;55.86
19286;BME280;9776;50.798;6.430;2023-04-26T03:10:50;100470.38;;;5.92;55.92
19286;BME280;9776;50.798;6.430;2023-04-26T03:13:16;100466.91;;;5.92;56.05
19286;BME280;9776;50.798;6.430;2023-04-26T03:15:44;100466.19;;;5.90;55.94
19286;BME280;9776;50.798;6.430;2023-04-26T03:18:11;100467.16;;;5.89;56.20
19286;BME280;9776;50.798;6.430;2023-04-26T03:20:37;100455.22;;;5.85;56.18
19286;BME280;9776;50.798;6.430;2023-04-26T03:23:05;100457.94;;;5.83;56.11
19286;BME280;9776;50.798;6.430;2023-04-26T03:25:32;100461.38;;;5.84;56.03
19286;BME280;9776;50.798;6.430;2023-04-26T03:27:59;100457.34;;;5.80;56.02
19286;BME280;9776;50.798;6.430;2023-04-26T03:30:25;100456.13;;;5.72;56.20
19286;BME280;9776;50.798;6.430;2023-04-26T03:32:52;100454.69;;;5.68;56.08
19286;BME280;9776;50.798;6.430;2023-04-26T03:35:19;100455.16;;;5.62;56.17
19286;BME280;9776;50.798;6.430;2023-04-26T03:37:45;100455.41;;;5.59;56.26
19286;BME280;9776;50.798;6.430;2023-04-26T03:40:13;100455.63;;;5.56;56.34
19286;BME280;9776;50.798;6.430;2023-04-26T03:42:41;100455.72;;;5.55;56.25
19286;BME280;9776;50.798;6.430;2023-04-26T03:45:08;100457.72;;;5.51;56.47
19286;BME280;9776;50.798;6.430;2023-04-26T03:47:35;100460.47;;;5.50;56.51
19286;BME280;9776;50.798;6.430;2023-04-26T03:50:02;100462.69;;;5.43;56.66
19286;BME280;9776;50.798;6.430;2023-04-26T03:52:28;100462.94;;;5.40;56.70
19286;BME280;9776;50.798;6.430;2023-04-26T03:54:55;100462.19;;;5.27;56.99
19286;BME280;9776;50.798;6.430;2023-04-26T03:57:23;100469.78;;;5.06;57.64
19286;BME280;9776;50.798;6.430;2023-04-26T03:59:50;100468.25;;;5.04;57.72
19286;BME280;9776;50.798;6.430;2023-04-26T04:02:16;100462.31;;;5.02;57.85
19286;BME280;9776;50.798;6.430;2023-04-26T04:04:43;100464.44;;;5.08;57.75
19286;BME280;9776;50.798;6.430;2023-04-26T04:07:09;100464.97;;;5.13;57.56
19286;BME280;9776;50.798;6.430;2023-04-26T04:09:36;100467.22;;;5.18;57.48
19286;BME280;9776;50.798;6.430;2023-04-26T04:12:03;100467.13;;;5.19;57.37
19286;BME280;9776;50.798;6.430;2023-04-26T04:14:31;100469.00;;;5.17;57.48
19286;BME280;9776;50.798;6.430;2023-04-26T04:16:58;100467.91;;;5.08;57.64
19286;BME280;9776;50.798;6.430;2023-04-26T04:19:26;100466.13;;;5.09;57.74
19286;BME280;9776;50.798;6.430;2023-04-26T04:21:52;100471.97;;;5.12;57.66
19286;BME280;9776;50.798;6.430;2023-04-26T04:24:19;100467.38;;;5.16;57.69
19286;BME280;9776;50.798;6.430;2023-04-26T04:26:46;100469.22;;;5.14;57.70
19286;BME280;9776;50.798;6.430;2023-04-26T04:29:12;100475.16;;;5.05;57.98
19286;BME280;9776;50.798;6.430;2023-04-26T04:31:41;100476.88;;;4.93;58.37
19286;BME280;9776;50.798;6.430;2023-04-26T04:34:08;100478.53;;;4.94;58.38
19286;BME280;9776;50.798;6.430;2023-04-26T04:36:34;100475.38;;;5.02;58.25
19286;BME280;9776;50.798;6.430;2023-04-26T04:39:03;100484.56;;;5.07;58.13
19286;BME280;9776;50.798;6.430;2023-04-26T04:41:30;100481.38;;;5.15;58.06
19286;BME280;9776;50.798;6.430;2023-04-26T04:43:57;100479.16;;;5.22;58.01
19286;BME280;9776;50.798;6.430;2023-04-26T04:46:24;100491.19;;;5.24;58.08
19286;BME280;9776;50.798;6.430;2023-04-26T04:48:52;100493.97;;;5.10;58.40
19286;BME280;9776;50.798;6.430;2023-04-26T04:51:19;100493.75;;;5.13;58.53
19286;BME280;9776;50.798;6.430;2023-04-26T04:53:45;100496.84;;;5.18;58.51
19286;BME280;9776;50.798;6.430;2023-04-26T04:56:12;100494.94;;;5.20;58.42
19286;BME280;9776;50.798;6.430;2023-04-26T04:58:40;100494.94;;;5.20;58.59
19286;BME280;9776;50.798;6.430;2023-04-26T05:01:06;100494.72;;;5.23;58.50
19286;BME280;9776;50.798;6.430;2023-04-26T05:03:33;100493.44;;;5.29;58.47
19286;BME280;9776;50.798;6.430;2023-04-26T05:06:01;100501.59;;;5.37;58.37
19286;BME280;9776;50.798;6.430;2023-04-26T05:08:27;100497.69;;;5.42;58.27
19286;BME280;9776;50.798;6.430;2023-04-26T05:10:54;100505.41;;;5.44;58.42
19286;BME280;9776;50.798;6.430;2023-04-26T05:13:21;100501.91;;;5.32;58.66
19286;BME280;9776;50.798;6.430;2023-04-26T05:15:47;100511.94;;;5.14;59.06
19286;BME280;9776;50.798;6.430;2023-04-26T05:18:14;100508.00;;;4.96;59.62
19286;BME280;9776;50.798;6.430;2023-04-26T05:20:41;100512.66;;;4.93;59.83
19286;BME280;9776;50.798;6.430;2023-04-26T05:23:08;100516.59;;;4.98;59.78
19286;BME280;9776;50.798;6.430;2023-04-26T05:25:36;100511.78;;;5.05;59.81
19286;BME280;9776;50.798;6.430;2023-04-26T05:28:02;100517.16;;;5.14;59.83
19286;BME280;9776;50.798;6.430;2023-04-26T05:30:29;100521.19;;;5.31;59.48
19286;BME280;9776;50.798;6.430;2023-04-26T05:32:56;100520.72;;;5.37;59.55
19286;BME280;9776;50.798;6.430;2023-04-26T05:35:22;100525.44;;;5.45;59.42
19286;BME280;9776;50.798;6.430;2023-04-26T05:37:49;100521.25;;;5.42;59.58
19286;BME280;9776;50.798;6.430;2023-04-26T05:40:17;100520.41;;;5.42;59.74
19286;BME280;9776;50.798;6.430;2023-04-26T05:42:44;100525.56;;;5.54;59.61
19286;BME280;9776;50.798;6.430;2023-04-26T05:45:11;100527.31;;;5.78;59.44
19286;BME280;9776;50.798;6.430;2023-04-26T05:47:37;100535.31;;;6.00;59.36
19286;BME280;9776;50.798;6.430;2023-04-26T05:50:05;100531.91;;;6.33;59.02
19286;BME280;9776;50.798;6.430;2023-04-26T05:52:32;100538.25;;;6.63;58.71
19286;BME280;9776;50.798;6.430;2023-04-26T05:54:59;100533.22;;;6.94;58.23
19286;BME280;9776;50.798;6.430;2023-04-26T05:57:28;100525.03;;;7.19;58.04
19286;BME280;9776;50.798;6.430;2023-04-26T05:59:55;100530.41;;;7.60;57.43
19286;BME280;9776;50.798;6.430;2023-04-26T06:02:22;100530.00;;;7.96;56.78
19286;BME280;9776;50.798;6.430;2023-04-26T06:04:48;100527.31;;;8.28;56.42
19286;BME280;9776;50.798;6.430;2023-04-26T06:07:15;100534.16;;;8.61;55.91
19286;BME280;9776;50.798;6.430;2023-04-26T06:09:42;100536.34;;;8.96;55.41
19286;BME280;9776;50.798;6.430;2023-04-26T06:12:09;100534.91;;;9.22;55.02
19286;BME280;9776;50.798;6.430;2023-04-26T06:14:37;100537.84;;;9.48;54.41
19286;BME280;9776;50.798;6.430;2023-04-26T06:17:03;100537.31;;;9.63;54.15
19286;BME280;9776;50.798;6.430;2023-04-26T06:19:30;100541.44;;;9.47;54.47
19286;BME280;9776;50.798;6.430;2023-04-26T06:21:56;100540.34;;;9.59;54.39
19286;BME280;9776;50.798;6.430;2023-04-26T06:24:24;100549.09;;;9.88;53.84
19286;BME280;9776;50.798;6.430;2023-04-26T06:26:51;100540.47;;;10.24;53.11
19286;BME280;9776;50.798;6.430;2023-04-26T06:29:17;100532.19;;;10.56;52.43
19286;BME280;9776;50.798;6.430;2023-04-26T06:31:45;100535.03;;;10.82;51.76
19286;BME280;9776;50.798;6.430;2023-04-26T06:34:12;100539.63;;;11.07;51.12
19286;BME280;9776;50.798;6.430;2023-04-26T06:36:38;100540.88;;;11.30;50.49
19286;BME280;9776;50.798;6.430;2023-04-26T06:39:05;100548.97;;;11.47;50.14
19286;BME280;9776;50.798;6.430;2023-04-26T06:41:32;100556.28;;;11.53;49.59
19286;BME280;9776;50.798;6.430;2023-04-26T06:43:58;100548.22;;;11.54;49.50
19286;BME280;9776;50.798;6.430;2023-04-26T06:46:25;100535.31;;;11.51;49.49
19286;BME280;9776;50.798;6.430;2023-04-26T06:48:53;100544.06;;;11.52;49.57
19286;BME280;9776;50.798;6.430;2023-04-26T06:51:20;100542.53;;;11.49;49.51
19286;BME280;9776;50.798;6.430;2023-04-26T06:53:47;100546.84;;;11.50;49.24
19286;BME280;9776;50.798;6.430;2023-04-26T06:56:14;100543.91;;;11.53;49.12
19286;BME280;9776;50.798;6.430;2023-04-26T06:58:57;100551.69;;;11.55;48.96
19286;BME280;9776;50.798;6.430;2023-04-26T07:01:24;100550.88;;;11.72;48.55
19286;BME280;9776;50.798;6.430;2023-04-26T07:03:50;100547.63;;;11.78;48.39
19286;BME280;9776;50.798;6.430;2023-04-26T07:06:18;100550.81;;;11.81;48.06
19286;BME280;9776;50.798;6.430;2023-04-26T07:08:45;100550.03;;;11.89;47.80
19286;BME280;9776;50.798;6.430;2023-04-26T07:11:12;100551.03;;;12.06;47.08
19286;BME280;9776;50.798;6.430;2023-04-26T07:13:38;100556.56;;;12.38;46.49
19286;BME280;9776;50.798;6.430;2023-04-26T07:16:05;100553.38;;;12.60;45.93
19286;BME280;9776;50.798;6.430;2023-04-26T07:18:33;100548.38;;;12.83;45.23
19286;BME280;9776;50.798;6.430;2023-04-26T07:21:00;100539.00;;;13.04;44.83
19286;BME280;9776;50.798;6.430;2023-04-26T07:23:28;100556.84;;;13.20;44.24
19286;BME280;9776;50.798;6.430;2023-04-26T07:25:55;100551.09;;;13.33;43.63
19286;BME280;9776;50.798;6.430;2023-04-26T07:28:21;100556.59;;;13.47;43.43
19286;BME280;9776;50.798;6.430;2023-04-26T07:30:48;100554.09;;;13.54;43.33
19286;BME280;9776;50.798;6.430;2023-04-26T07:33:14;100563.59;;;13.64;43.02
19286;BME280;9776;50.798;6.430;2023-04-26T07:35:42;100557.59;;;13.62;43.02
19286;BME280;9776;50.798;6.430;2023-04-26T07:38:09;100555.31;;;13.68;42.82
19286;BME280;9776;50.798;6.430;2023-04-26T07:40:37;100552.00;;;13.82;42.54
19286;BME280;9776;50.798;6.430;2023-04-26T07:43:04;100548.88;;;14.02;41.93
19286;BME280;9776;50.798;6.430;2023-04-26T07:45:31;100552.13;;;14.29;41.60
19286;BME280;9776;50.798;6.430;2023-04-26T07:47:58;100549.91;;;14.81;40.55
19286;BME280;9776;50.798;6.430;2023-04-26T07:50:24;100548.72;;;14.91;40.41
19286;BME280;9776;50.798;6.430;2023-04-26T07:52:51;100540.94;;;14.82;40.33
19286;BME280;9776;50.798;6.430;2023-04-26T07:55:18;100547.94;;;14.66;40.71
19286;BME280;9776;50.798;6.430;2023-04-26T07:57:46;100540.44;;;14.86;40.47
19286;BME280;9776;50.798;6.430;2023-04-26T08:00:13;100538.97;;;15.45;39.25
19286;BME280;9776;50.798;6.430;2023-04-26T08:02:41;100539.38;;;15.87;38.31
19286;BME280;9776;50.798;6.430;2023-04-26T08:05:08;100542.16;;;15.94;38.22
19286;BME280;9776;50.798;6.430;2023-04-26T08:07:35;100540.81;;;15.75;38.33
19286;BME280;9776;50.798;6.430;2023-04-26T08:10:02;100541.50;;;15.47;38.77
19286;BME280;9776;50.798;6.430;2023-04-26T08:12:28;100534.94;;;15.57;38.38
19286;BME280;9776;50.798;6.430;2023-04-26T08:14:58;100529.91;;;15.62;37.90
19286;BME280;9776;50.798;6.430;2023-04-26T08:17:25;100526.97;;;15.57;37.63
19286;BME280;9776;50.798;6.430;2023-04-26T08:19:51;100523.31;;;15.58;37.75
19286;BME280;9776;50.798;6.430;2023-04-26T08:22:18;100525.25;;;15.33;37.73
19286;BME280;9776;50.798;6.430;2023-04-26T08:24:46;100530.50;;;15.42;37.94
19286;BME280;9776;50.798;6.430;2023-04-26T08:27:14;100531.03;;;15.90;36.93
19286;BME280;9776;50.798;6.430;2023-04-26T08:29:41;100528.25;;;16.59;35.62
19286;BME280;9776;50.798;6.430;2023-04-26T08:32:09;100531.66;;;16.96;34.88
19286;BME280;9776;50.798;6.430;2023-04-26T08:34:36;100526.56;;;17.16;34.24
19286;BME280;9776;50.798;6.430;2023-04-26T08:37:02;100534.22;;;17.05;34.34
19286;BME280;9776;50.798;6.430;2023-04-26T08:39:29;100540.91;;;17.00;34.39
19286;BME280;9776;50.798;6.430;2023-04-26T08:42:00;100538.69;;;17.19;33.96
19286;BME280;9776;50.798;6.430;2023-04-26T08:44:32;100531.00;;;17.45;33.01
19286;BME280;9776;50.798;6.430;2023-04-26T08:47:03;100538.66;;;17.33;33.17
19286;BME280;9776;50.798;6.430;2023-04-26T08:49:39;100540.84;;;16.65;34.14
19286;BME280;9776;50.798;6.430;2023-04-26T08:52:08;100542.13;;;16.17;34.46
19286;BME280;9776;50.798;6.430;2023-04-26T08:54:35;100537.53;;;15.65;35.17
19286;BME280;9776;50.798;6.430;2023-04-26T08:57:03;100533.94;;;14.81;36.24
19286;BME280;9776;50.798;6.430;2023-04-26T08:59:32;100541.88;;;14.42;36.88
19286;BME280;9776;50.798;6.430;2023-04-26T09:01:59;100538.88;;;14.45;36.72
19286;BME280;9776;50.798;6.430;2023-04-26T09:04:27;100538.50;;;14.64;36.23
19286;BME280;9776;50.798;6.430;2023-04-26T09:06:59;100542.91;;;14.88;35.56
19286;BME280;9776;50.798;6.430;2023-04-26T09:09:26;100545.16;;;15.07;35.19
19286;BME280;9776;50.798;6.430;2023-04-26T09:11:54;100538.28;;;15.20;34.96
19286;BME280;9776;50.798;6.430;2023-04-26T09:14:22;100529.03;;;15.39;34.64
19286;BME280;9776;50.798;6.430;2023-04-26T09:16:49;100529.53;;;15.88;34.06
19286;BME280;9776;50.798;6.430;2023-04-26T09:19:16;100531.09;;;16.57;33.22
19286;BME280;9776;50.798;6.430;2023-04-26T09:21:44;100524.94;;;16.86;32.75
19286;BME280;9776;50.798;6.430;2023-04-26T09:24:12;100528.53;;;16.78;32.37
19286;BME280;9776;50.798;6.430;2023-04-26T09:26:39;100525.66;;;16.94;32.25
19286;BME280;9776;50.798;6.430;2023-04-26T09:29:14;100520.22;;;17.95;30.77
19286;BME280;9776;50.798;6.430;2023-04-26T09:31:42;100522.63;;;19.62;28.64
19286;BME280;9776;50.798;6.430;2023-04-26T09:34:09;100524.09;;;21.20;26.79
19286;BME280;9776;50.798;6.430;2023-04-26T09:36:47;100519.47;;;22.89;25.07
19286;BME280;9776;50.798;6.430;2023-04-26T09:39:28;100514.66;;;24.79;23.06
19286;BME280;9776;50.798;6.430;2023-04-26T09:41:56;100506.50;;;26.54;21.63
19286;BME280;9776;50.798;6.430;2023-04-26T09:44:24;100503.56;;;27.69;20.62
19286;BME280;9776;50.798;6.430;2023-04-26T09:46:58;100503.78;;;27.94;20.20
19286;BME280;9776;50.798;6.430;2023-04-26T09:49:25;100501.72;;;28.95;19.21
19286;BME280;9776;50.798;6.430;2023-04-26T09:51:59;100498.47;;;29.96;18.42
19286;BME280;9776;50.798;6.430;2023-04-26T09:54:38;100500.16;;;30.91;17.39
19286;BME280;9776;50.798;6.430;2023-04-26T09:57:05;100500.16;;;32.23;16.37
19286;BME280;9776;50.798;6.430;2023-04-26T09:59:39;100500.78;;;32.38;16.06
19286;BME280;9776;50.798;6.430;2023-04-26T10:02:09;100497.59;;;30.25;17.30
19286;BME280;9776;50.798;6.430;2023-04-26T10:04:38;100492.84;;;28.58;18.69
19286;BME280;9776;50.798;6.430;2023-04-26T10:07:05;100486.47;;;26.17;20.32
19286;BME280;9776;50.798;6.430;2023-04-26T10:09:32;100489.94;;;24.13;21.86
19286;BME280;9776;50.798;6.430;2023-04-26T10:12:01;100494.75;;;23.58;22.36
19286;BME280;9776;50.798;6.430;2023-04-26T10:14:28;100488.69;;;23.62;22.29
19286;BME280;9776;50.798;6.430;2023-04-26T10:16:55;100489.19;;;23.83;21.91
19286;BME280;9776;50.798;6.430;2023-04-26T10:19:23;100483.75;;;24.36;21.37
19286;BME280;9776;50.798;6.430;2023-04-26T10:21:52;100481.19;;;25.32;20.25
19286;BME280;9776;50.798;6.430;2023-04-26T10:24:19;100484.34;;;26.19;19.48
19286;BME280;9776;50.798;6.430;2023-04-26T10:26:46;100486.94;;;26.14;19.48
19286;BME280;9776;50.798;6.430;2023-04-26T10:29:15;100475.59;;;25.50;19.84
19286;BME280;9776;50.798;6.430;2023-04-26T10:32:04;100479.03;;;25.34;20.04
19286;BME280;9776;50.798;6.430;2023-04-26T10:34:32;100477.44;;;25.05;20.53
19286;BME280;9776;50.798;6.430;2023-04-26T10:37:05;100480.00;;;24.13;21.18
19286;BME280;9776;50.798;6.430;2023-04-26T10:39:32;100472.91;;;23.78;21.64
19286;BME280;9776;50.798;6.430;2023-04-26T10:42:16;100476.56;;;23.24;22.28
19286;BME280;9776;50.798;6.430;2023-04-26T10:44:49;100473.56;;;23.61;21.87
19286;BME280;9776;50.798;6.430;2023-04-26T10:47:21;100465.63;;;23.78;21.67
19286;BME280;9776;50.798;6.430;2023-04-26T10:49:48;100467.38;;;23.72;21.83
19286;BME280;9776;50.798;6.430;2023-04-26T10:52:16;100460.19;;;23.66;21.79
19286;BME280;9776;50.798;6.430;2023-04-26T10:54:45;100459.63;;;23.64;21.65
19286;BME280;9776;50.798;6.430;2023-04-26T10:57:13;100459.91;;;23.75;21.56
19286;BME280;9776;50.798;6.430;2023-04-26T10:59:39;100464.19;;;23.64;21.51
19286;BME280;9776;50.798;6.430;2023-04-26T11:02:10;100461.28;;;23.65;21.19
19286;BME280;9776;50.798;6.430;2023-04-26T11:05:01;100454.13;;;23.71;21.17
19286;BME280;9776;50.798;6.430;2023-04-26T11:07:37;100456.16;;;23.99;20.89
19286;BME280;9776;50.798;6.430;2023-04-26T11:10:07;100455.22;;;24.51;20.52
19286;BME280;9776;50.798;6.430;2023-04-26T11:12:34;100451.88;;;24.96;20.04
19286;BME280;9776;50.798;6.430;2023-04-26T11:15:01;100451.06;;;25.12;19.98
19286;BME280;9776;50.798;6.430;2023-04-26T11:17:35;100447.47;;;25.06;20.03
19286;BME280;9776;50.798;6.430;2023-04-26T11:20:04;100449.06;;;25.64;19.41
19286;BME280;9776;50.798;6.430;2023-04-26T11:22:38;100442.00;;;26.13;18.85
19286;BME280;9776;50.798;6.430;2023-04-26T11:25:05;100444.13;;;26.87;18.49
19286;BME280;9776;50.798;6.430;2023-04-26T11:27:32;100441.94;;;27.33;17.98
19286;BME280;9776;50.798;6.430;2023-04-26T11:30:01;100429.66;;;27.52;17.69
19286;BME280;9776;50.798;6.430;2023-04-26T11:32:30;100428.91;;;27.93;17.57
19286;BME280;9776;50.798;6.430;2023-04-26T11:34:59;100429.25;;;28.49;16.94
19286;BME280;9776;50.798;6.430;2023-04-26T11:37:26;100426.84;;;28.57;17.15
19286;BME280;9776;50.798;6.430;2023-04-26T11:39:52;100426.50;;;28.44;17.08
19286;BME280;9776;50.798;6.430;2023-04-26T11:42:23;100423.66;;;28.13;17.22
19286;BME280;9776;50.798;6.430;2023-04-26T11:44:52;100421.53;;;27.89;17.22
19286;BME280;9776;50.798;6.430;2023-04-26T11:47:20;100422.41;;;27.63;17.24
19286;BME280;9776;50.798;6.430;2023-04-26T11:49:49;100423.03;;;27.16;17.98
19286;BME280;9776;50.798;6.430;2023-04-26T11:52:16;100426.09;;;27.25;17.85
19286;BME280;9776;50.798;6.430;2023-04-26T11:54:42;100422.06;;;27.54;17.84
19286;BME280;9776;50.798;6.430;2023-04-26T11:57:12;100421.69;;;27.72;17.75
19286;BME280;9776;50.798;6.430;2023-04-26T11:59:40;100428.44;;;27.70;17.33
19286;BME280;9776;50.798;6.430;2023-04-26T12:02:07;100432.81;;;28.07;17.07
19286;BME280;9776;50.798;6.430;2023-04-26T12:04:34;100430.25;;;28.33;17.00
19286;BME280;9776;50.798;6.430;2023-04-26T12:07:03;100433.41;;;28.14;17.05
19286;BME280;9776;50.798;6.430;2023-04-26T12:09:30;100430.78;;;27.56;17.64
19286;BME280;9776;50.798;6.430;2023-04-26T12:11:57;100427.00;;;27.03;18.30
19286;BME280;9776;50.798;6.430;2023-04-26T12:14:29;100423.03;;;26.46;18.53
19286;BME280;9776;50.798;6.430;2023-04-26T12:16:58;100418.41;;;26.25;19.02
19286;BME280;9776;50.798;6.430;2023-04-26T12:19:26;100413.34;;;25.95;19.21
19286;BME280;9776;50.798;6.430;2023-04-26T12:21:52;100414.13;;;26.12;18.76
19286;BME280;9776;50.798;6.430;2023-04-26T12:24:22;100412.94;;;25.70;18.83
19286;BME280;9776;50.798;6.430;2023-04-26T12:26:51;100418.13;;;24.58;20.04
19286;BME280;9776;50.798;6.430;2023-04-26T12:29:17;100411.88;;;24.18;20.32
19286;BME280;9776;50.798;6.430;2023-04-26T12:31:45;100423.31;;;24.02;20.30
19286;BME280;9776;50.798;6.430;2023-04-26T12:34:11;100414.16;;;23.56;20.71
19286;BME280;9776;50.798;6.430;2023-04-26T12:36:40;100417.41;;;23.05;21.06
19286;BME280;9776;50.798;6.430;2023-04-26T12:39:08;100415.28;;;22.41;21.56
19286;BME280;9776;50.798;6.430;2023-04-26T12:41:36;100406.28;;;22.11;21.79
19286;BME280;9776;50.798;6.430;2023-04-26T12:44:03;100409.72;;;22.18;21.77
19286;BME280;9776;50.798;6.430;2023-04-26T12:46:30;100411.03;;;21.91;22.00
19286;BME280;9776;50.798;6.430;2023-04-26T12:48:57;100410.44;;;21.89;22.04
19286;BME280;9776;50.798;6.430;2023-04-26T12:51:24;100402.34;;;22.32;21.46
19286;BME280;9776;50.798;6.430;2023-04-26T12:53:51;100402.19;;;22.45;21.54
19286;BME280;9776;50.798;6.430;2023-04-26T12:56:18;100402.34;;;22.50;21.53
19286;BME280;9776;50.798;6.430;2023-04-26T12:58:46;100396.44;;;22.41;21.38
19286;BME280;9776;50.798;6.430;2023-04-26T13:01:13;100399.59;;;22.38;21.52
19286;BME280;9776;50.798;6.430;2023-04-26T13:03:39;100405.25;;;22.30;21.68
19286;BME280;9776;50.798;6.430;2023-04-26T13:06:07;100400.41;;;22.21;21.68
19286;BME280;9776;50.798;6.430;2023-04-26T13:08:34;100404.56;;;21.98;22.02